Time;durP1;ratioP1;P1;durP2;ratioP2;P2;SDS_P1;SDS_P2;PMS_P1;PMS_P2;Temp;Humidity;BMP_temperature;BMP_pressure;BME280_temperature;BME280_humidity;BME280_pressure;Samples;Min_cycle;Max_cycle;Signal;HPM_P1;HPM_P2
2022/05/07 00:01:55;;;;;;;31.00;20.60;;;;;;;12.73;100.00;102150.78;5104256;28;20450;-64
2022/05/07 00:04:20;;;;;;;31.92;20.42;;;;;;;12.80;100.00;102151.78;5102153;28;20024;-64
2022/05/07 00:06:45;;;;;;;30.23;19.50;;;;;;;12.87;100.00;102151.03;5111004;28;20020;-64
2022/05/07 00:09:10;;;;;;;31.00;20.00;;;;;;;12.87;100.00;102152.75;5121287;28;20047;-65
2022/05/07 00:11:36;;;;;;;29.77;19.73;;;;;;;12.80;100.00;102143.84;5122377;28;20039;-65
2022/05/07 00:14:01;;;;;;;30.85;20.27;;;;;;;12.81;100.00;102148.25;5121624;28;20027;-64
2022/05/07 00:19:10;;;;;;;31.25;20.67;;;;;;;12.48;100.00;102145.94;5116442;28;20035;-64
2022/05/07 00:21:36;;;;;;;30.25;20.13;;;;;;;12.38;100.00;102142.25;5116373;28;20036;-64
2022/05/07 00:24:03;;;;;;;30.95;21.33;;;;;;;12.29;100.00;102134.13;5111329;28;20031;-64
2022/05/07 00:26:29;;;;;;;34.20;22.90;;;;;;;12.20;100.00;102138.41;5118161;28;20027;-64
2022/05/07 00:28:54;;;;;;;32.92;22.55;;;;;;;12.15;100.00;102144.47;5118170;28;20024;-67
2022/05/07 00:31:20;;;;;;;32.55;22.27;;;;;;;12.02;100.00;102144.25;5120111;28;20026;-67
2022/05/07 00:33:45;;;;;;;32.30;22.30;;;;;;;12.06;100.00;102141.63;5120852;28;20028;-66
2022/05/07 00:36:11;;;;;;;34.08;21.40;;;;;;;12.08;100.00;102132.88;5121348;28;20049;-67
2022/05/07 00:38:36;;;;;;;31.88;21.13;;;;;;;12.13;100.00;102133.84;5119389;28;20023;-68
2022/05/07 00:41:01;;;;;;;30.48;20.60;;;;;;;12.13;100.00;102130.28;5123163;28;20023;-66
2022/05/07 00:43:34;;;;;;;31.33;21.15;;;;;;;12.27;100.00;102133.22;5118384;28;20032;-66
2022/05/07 00:46:00;;;;;;;31.52;20.20;;;;;;;12.35;100.00;102131.59;5118480;28;20020;-67
2022/05/07 00:48:26;;;;;;;29.27;18.90;;;;;;;12.36;100.00;102125.41;5122495;28;20030;-66
2022/05/07 00:53:36;;;;;;;29.02;18.98;;;;;;;12.29;100.00;102131.47;5119758;28;20046;-68
2022/05/07 00:56:02;;;;;;;31.30;20.25;;;;;;;12.25;100.00;102124.34;5121602;28;20051;-67
2022/05/07 00:58:28;;;;;;;31.63;20.10;;;;;;;12.19;100.00;102126.00;5118267;28;20459;-64
2022/05/07 01:00:54;;;;;;;30.70;20.15;;;;;;;12.13;100.00;102130.28;5122136;28;20054;-66
2022/05/07 01:03:20;;;;;;;31.30;19.65;;;;;;;12.03;100.00;102129.25;5118998;28;20032;-67
2022/05/07 01:05:45;;;;;;;31.75;20.40;;;;;;;11.90;100.00;102128.09;5120899;28;20031;-65
2022/05/07 01:08:12;;;;;;;30.90;19.45;;;;;;;11.77;100.00;102126.94;5118883;28;20016;-65
2022/05/07 01:10:38;;;;;;;29.25;19.83;;;;;;;11.78;100.00;102125.19;5119162;28;20044;-64
2022/05/07 01:13:04;;;;;;;30.50;18.73;;;;;;;11.94;100.00;102121.09;5118446;28;20023;-65
2022/05/07 01:15:30;;;;;;;29.92;19.77;;;;;;;11.90;100.00;102122.78;5116699;28;20020;-65
2022/05/07 01:17:55;;;;;;;29.75;19.95;;;;;;;11.96;100.00;102120.28;5123480;28;20087;-67
2022/05/07 01:20:21;;;;;;;30.13;18.88;;;;;;;11.92;100.00;102121.03;5121915;27;20032;-67
2022/05/07 01:22:46;;;;;;;30.63;19.77;;;;;;;11.82;100.00;102114.69;5125180;28;20381;-69
2022/05/07 01:25:12;;;;;;;29.00;19.88;;;;;;;11.75;100.00;102112.78;5123013;28;20110;-69
2022/05/07 01:27:38;;;;;;;30.40;20.25;;;;;;;11.65;100.00;102108.19;5123183;28;20105;-67
2022/05/07 01:30:04;;;;;;;28.83;19.20;;;;;;;11.70;100.00;102114.44;5124663;28;20030;-67
2022/05/07 01:32:29;;;;;;;30.35;20.90;;;;;;;11.60;100.00;102109.81;5121888;28;20015;-70
2022/05/07 01:34:54;;;;;;;29.90;20.33;;;;;;;11.49;100.00;102097.25;5125208;28;20027;-73
2022/05/07 01:37:20;;;;;;;31.27;20.05;;;;;;;11.48;100.00;102098.13;5121167;28;20406;-68
2022/05/07 01:39:46;;;;;;;29.80;19.88;;;;;;;11.47;100.00;102098.09;5120722;28;20459;-71
2022/05/07 01:42:11;;;;;;;32.30;20.65;;;;;;;11.43;100.00;102105.09;5115429;28;20027;-66
2022/05/07 01:44:36;;;;;;;29.85;19.42;;;;;;;11.45;100.00;102103.34;5111491;28;20055;-67
2022/05/07 01:49:47;;;;;;;29.45;19.40;;;;;;;11.27;100.00;102102.94;5106938;28;20071;-66
2022/05/07 01:52:13;;;;;;;28.15;18.52;;;;;;;11.21;100.00;102102.81;5105173;28;20486;-70
2022/05/07 01:54:38;;;;;;;28.80;19.95;;;;;;;11.23;100.00;102101.13;5105327;28;20107;-68
2022/05/07 01:57:04;;;;;;;28.88;19.70;;;;;;;11.19;100.00;102105.44;5106268;27;20106;-67
2022/05/07 01:59:29;;;;;;;29.75;20.20;;;;;;;11.13;100.00;102100.03;5103628;28;20482;-67
2022/05/07 02:01:55;;;;;;;31.38;20.45;;;;;;;11.34;100.00;102096.94;5106975;28;20030;-66
2022/05/07 02:04:20;;;;;;;30.95;20.38;;;;;;;11.25;100.00;102091.44;5104283;28;20020;-70
2022/05/07 02:06:45;;;;;;;31.58;20.25;;;;;;;11.15;100.00;102087.72;5105979;28;20059;-65
2022/05/07 02:09:11;;;;;;;29.30;19.92;;;;;;;11.11;100.00;102086.75;5104934;28;20095;-68
2022/05/07 02:11:36;;;;;;;30.02;19.63;;;;;;;11.14;100.00;102092.13;5104984;28;20434;-67
2022/05/07 02:14:01;;;;;;;30.10;20.35;;;;;;;11.17;100.00;102091.28;5106257;28;20482;-67
2022/05/07 02:16:26;;;;;;;29.15;18.77;;;;;;;11.18;100.00;102084.25;5103287;28;20043;-65
2022/05/07 02:18:52;;;;;;;29.58;19.42;;;;;;;11.18;100.00;102086.88;5106768;28;20106;-69
2022/05/07 02:21:18;;;;;;;29.00;19.00;;;;;;;11.12;100.00;102085.00;5104234;28;20051;-64
2022/05/07 02:23:43;;;;;;;28.58;19.55;;;;;;;11.01;100.00;102081.22;5105840;28;20032;-63
2022/05/07 02:26:08;;;;;;;28.80;19.30;;;;;;;10.96;100.00;102082.00;5104930;28;20114;-64
2022/05/07 02:28:34;;;;;;;28.15;19.30;;;;;;;11.07;100.00;102084.91;5104346;28;20078;-63
2022/05/07 02:30:59;;;;;;;29.58;19.40;;;;;;;11.12;100.00;102079.69;5106940;28;20527;-63
2022/05/07 02:33:24;;;;;;;29.70;19.20;;;;;;;11.10;100.00;102084.97;5103355;28;20027;-64
2022/05/07 02:35:50;;;;;;;31.15;20.75;;;;;;;11.12;100.00;102083.22;5106419;28;20030;-64
2022/05/07 02:38:15;;;;;;;30.15;20.05;;;;;;;11.15;100.00;102078.03;5104757;28;20378;-64
2022/05/07 02:43:24;;;;;;;29.40;19.88;;;;;;;11.03;100.00;102072.47;5112662;28;20093;-64
2022/05/07 02:45:50;;;;;;;29.17;19.75;;;;;;;11.03;100.00;102069.81;5106213;28;20375;-63
2022/05/07 02:48:15;;;;;;;29.30;19.80;;;;;;;11.00;100.00;102072.41;5104192;28;20106;-64
2022/05/07 02:50:41;;;;;;;29.80;20.08;;;;;;;11.02;100.00;102065.38;5103617;28;20125;-63
2022/05/07 02:53:06;;;;;;;29.40;19.05;;;;;;;10.95;100.00;102068.75;5120699;28;20073;-64
2022/05/07 02:55:31;;;;;;;29.55;19.60;;;;;;;11.06;100.00;102067.22;5123078;28;20024;-64
2022/05/07 02:57:57;;;;;;;28.40;19.00;;;;;;;11.06;100.00;102061.94;5126645;28;20028;-64
2022/05/07 03:00:22;;;;;;;29.63;19.58;;;;;;;11.16;100.00;102063.03;5116742;28;20031;-65
2022/05/07 03:02:47;;;;;;;28.50;18.80;;;;;;;11.21;100.00;102066.66;5105622;28;20165;-64
2022/05/07 03:05:13;;;;;;;28.63;19.02;;;;;;;11.17;100.00;102064.84;5104008;27;20024;-65
2022/05/07 03:07:38;;;;;;;28.73;18.88;;;;;;;11.14;100.00;102070.06;5104354;28;20065;-65
2022/05/07 03:10:04;;;;;;;30.00;19.40;;;;;;;11.13;100.00;102073.56;5105449;28;20572;-64
2022/05/07 03:12:29;;;;;;;27.95;18.90;;;;;;;11.14;100.00;102062.13;5102489;28;20478;-64
2022/05/07 03:14:54;;;;;;;29.30;19.58;;;;;;;11.03;100.00;102061.88;5105874;27;20398;-64
2022/05/07 03:17:20;;;;;;;30.15;19.75;;;;;;;11.01;100.00;102067.97;5102767;28;20032;-64
2022/05/07 03:19:45;;;;;;;29.55;20.00;;;;;;;10.93;100.00;102070.47;5104688;28;20351;-64
2022/05/07 03:22:10;;;;;;;30.40;19.88;;;;;;;10.94;100.00;102066.97;5104215;28;20355;-64
2022/05/07 03:24:38;;;;;;;29.88;20.38;;;;;;;11.08;100.00;102062.88;5102854;28;20390;-63
2022/05/07 03:27:04;;;;;;;28.33;18.98;;;;;;;11.05;100.00;102069.84;5104782;28;20035;-64
2022/05/07 03:29:30;;;;;;;28.67;19.50;;;;;;;11.09;100.00;102067.28;5102120;28;20109;-64
2022/05/07 03:31:55;;;;;;;28.15;18.85;;;;;;;11.15;100.00;102067.44;5105195;28;20055;-64
2022/05/07 03:34:20;;;;;;;29.90;20.52;;;;;;;10.98;100.00;102068.84;5101297;28;20064;-64
2022/05/07 03:36:46;;;;;;;29.98;19.73;;;;;;;11.08;100.00;102062.88;5104021;28;20024;-64
2022/05/07 03:39:13;;;;;;;30.52;19.67;;;;;;;11.05;100.00;102075.13;5103526;28;20031;-64
2022/05/07 03:41:38;;;;;;;29.67;20.80;;;;;;;11.03;100.00;102069.81;5103185;28;20021;-64
2022/05/07 03:44:04;;;;;;;29.60;20.00;;;;;;;11.01;100.00;102068.91;5104372;28;20094;-64
2022/05/07 03:46:29;;;;;;;30.30;20.83;;;;;;;10.92;100.00;102073.97;5101325;28;20386;-64
2022/05/07 03:48:54;;;;;;;30.50;19.83;;;;;;;10.81;100.00;102071.09;5105332;28;20106;-64
2022/05/07 03:51:20;;;;;;;30.70;20.95;;;;;;;10.81;100.00;102076.38;5101706;28;20079;-64
2022/05/07 03:53:45;;;;;;;29.58;20.90;;;;;;;10.76;100.00;102073.63;5104123;28;20028;-64
2022/05/07 03:56:11;;;;;;;31.75;21.17;;;;;;;10.81;100.00;102074.63;5103538;28;20019;-65
2022/05/07 03:58:37;;;;;;;33.10;22.25;;;;;;;10.85;100.00;102080.88;5102405;28;20028;-65
2022/05/07 04:01:03;;;;;;;30.80;21.13;;;;;;;10.78;100.00;102082.47;5104257;28;20024;-66
2022/05/07 04:03:29;;;;;;;31.58;21.75;;;;;;;10.75;100.00;102079.78;5101685;28;20081;-64
2022/05/07 04:05:56;;;;;;;30.88;22.10;;;;;;;10.62;100.00;102080.34;5101276;28;20035;-64
2022/05/07 04:08:23;;;;;;;31.45;21.58;;;;;;;10.59;100.00;102096.16;5104623;28;20034;-64
2022/05/07 04:10:49;;;;;;;30.85;22.10;;;;;;;10.66;100.00;102086.59;5102497;28;20073;-67
2022/05/07 04:13:15;;;;;;;31.73;22.55;;;;;;;10.72;100.00;102087.63;5103313;28;20425;-66
2022/05/07 04:15:43;;;;;;;34.78;24.77;;;;;;;10.73;100.00;102093.81;5102140;28;20031;-65
2022/05/07 04:18:08;;;;;;;33.55;22.17;;;;;;;10.75;100.00;102093.00;5102558;28;20094;-66
2022/05/07 04:20:34;;;;;;;35.47;23.73;;;;;;;10.96;100.00;102086.41;5103870;28;20467;-67
2022/05/07 04:23:00;;;;;;;34.03;24.95;;;;;;;10.94;100.00;102094.31;5101417;28;20378;-66
2022/05/07 04:25:26;;;;;;;32.67;23.90;;;;;;;11.03;100.00;102087.44;5105219;28;20055;-67
2022/05/07 04:27:51;;;;;;;31.58;22.58;;;;;;;10.95;100.00;102084.59;5113260;28;20024;-64
2022/05/07 04:30:16;;;;;;;31.45;21.70;;;;;;;11.04;100.00;102092.78;5119990;28;20063;-64
2022/05/07 04:32:42;;;;;;;33.03;21.90;;;;;;;11.06;100.00;102098.97;5114315;28;20016;-68
2022/05/07 04:35:07;;;;;;;31.90;21.38;;;;;;;11.09;100.00;102101.69;5108580;28;20053;-66
2022/05/07 04:37:32;;;;;;;32.70;22.52;;;;;;;11.11;100.00;102107.00;5108445;28;20057;-65
2022/05/07 04:39:58;;;;;;;30.13;21.30;;;;;;;11.30;100.00;102089.78;5106286;28;20035;-65
2022/05/07 04:42:24;;;;;;;30.33;21.45;;;;;;;11.24;100.00;102103.81;5117351;28;20051;-65
2022/05/07 04:44:49;;;;;;;33.05;20.83;;;;;;;11.25;100.00;102096.75;5105459;27;20077;-64
2022/05/07 04:47:15;;;;;;;33.20;22.00;;;;;;;11.22;100.00;102105.50;5102919;28;20491;-65
2022/05/07 04:49:41;;;;;;;34.40;21.73;;;;;;;11.32;100.00;102102.19;5123520;28;20012;-65
2022/05/07 04:52:06;;;;;;;33.33;22.70;;;;;;;11.33;100.00;102103.09;5124766;28;20036;-65
2022/05/07 04:54:32;;;;;;;31.17;22.77;;;;;;;11.34;100.00;102105.78;5129358;28;20028;-67
2022/05/07 04:56:58;;;;;;;33.00;22.88;;;;;;;11.49;100.00;102104.31;5124645;28;20030;-66
2022/05/07 04:59:23;;;;;;;35.30;23.63;;;;;;;11.56;100.00;102103.56;5128543;28;20019;-66
2022/05/07 05:01:49;;;;;;;34.08;24.35;;;;;;;11.55;100.00;102114.13;5125869;28;20061;-66
2022/05/07 05:04:14;;;;;;;34.53;25.27;;;;;;;11.58;100.00;102108.91;5126356;28;20048;-64
2022/05/07 05:06:40;;;;;;;33.67;24.75;;;;;;;11.50;100.00;102114.94;5126317;28;20454;-65
2022/05/07 05:09:06;;;;;;;34.78;24.60;;;;;;;11.65;100.00;102121.41;5125006;28;20024;-65
2022/05/07 05:11:32;;;;;;;33.83;25.08;;;;;;;11.70;100.00;102114.44;5128107;27;20046;-65
2022/05/07 05:13:57;;;;;;;36.90;26.90;;;;;;;11.71;100.00;102121.53;5114504;28;20057;-69
2022/05/07 05:16:23;;;;;;;34.75;25.67;;;;;;;11.77;100.00;102126.06;5107807;28;20051;-66
2022/05/07 05:18:49;;;;;;;35.22;26.27;;;;;;;11.74;100.00;102131.31;5105523;28;20356;-64
2022/05/07 05:21:14;;;;;;;33.65;26.60;;;;;;;11.75;100.00;102138.38;5106602;28;20031;-64
2022/05/07 05:23:40;;;;;;;37.90;29.08;;;;;;;11.84;100.00;102134.16;5106327;28;20061;-64
2022/05/07 05:26:05;;;;;;;36.58;29.33;;;;;;;11.88;100.00;102142.16;5105204;28;20032;-64
2022/05/07 05:28:30;;;;;;;38.30;30.30;;;;;;;11.93;100.00;102148.47;5107761;28;20109;-64
2022/05/07 05:30:55;;;;;;;38.85;30.45;;;;;;;11.85;100.00;102149.19;5104181;28;20475;-64
2022/05/07 05:33:22;;;;;;;40.60;30.63;;;;;;;11.91;100.00;102153.72;5107470;28;20023;-64
2022/05/07 05:35:48;;;;;;;40.20;32.00;;;;;;;11.94;100.00;102155.56;5104936;28;20042;-64
2022/05/07 05:38:15;;;;;;;41.60;31.67;;;;;;;11.98;100.00;102152.09;5106092;28;20107;-64
2022/05/07 05:40:41;;;;;;;39.78;32.30;;;;;;;11.98;100.00;102158.28;5106249;28;20022;-64
2022/05/07 05:43:07;;;;;;;41.65;32.78;;;;;;;12.09;100.00;102160.28;5104756;28;20046;-64
2022/05/07 05:45:32;;;;;;;41.45;32.97;;;;;;;12.18;100.00;102155.13;5107303;28;20102;-64
2022/05/07 05:47:58;;;;;;;39.35;32.15;;;;;;;12.33;100.00;102158.09;5103946;28;20028;-64
2022/05/07 05:50:23;;;;;;;42.13;32.72;;;;;;;12.40;100.00;102160.84;5107124;28;20382;-64
2022/05/07 05:52:48;;;;;;;41.00;33.72;;;;;;;12.46;100.00;102163.59;5104549;28;20054;-63
2022/05/07 05:55:14;;;;;;;40.83;34.92;;;;;;;12.59;100.00;102159.41;5105989;28;20375;-64
2022/05/07 05:57:39;;;;;;;41.90;34.55;;;;;;;12.70;100.00;102166.66;5106009;27;20469;-64
2022/05/07 06:00:07;;;;;;;44.92;36.75;;;;;;;12.78;100.00;102161.47;5102946;28;20491;-64
2022/05/07 06:02:33;;;;;;;42.97;36.95;;;;;;;12.83;100.00;102161.53;5107130;28;20114;-64
2022/05/07 06:04:59;;;;;;;45.22;38.67;;;;;;;12.83;100.00;102161.53;5103385;28;20020;-64
2022/05/07 06:07:24;;;;;;;43.85;36.53;;;;;;;12.97;100.00;102148.50;5107279;28;20028;-64
2022/05/07 06:09:49;;;;;;;42.40;36.47;;;;;;;13.09;100.00;102153.97;5102622;28;20489;-64
2022/05/07 06:12:15;;;;;;;44.58;36.53;;;;;;;13.16;100.00;102150.53;5105791;28;20024;-65
2022/05/07 06:14:40;;;;;;;43.95;36.92;;;;;;;13.20;100.00;102156.81;5104610;27;20432;-65
2022/05/07 06:17:06;;;;;;;45.25;36.92;;;;;;;13.21;100.00;102158.59;5104097;28;20020;-64
2022/05/07 06:19:31;;;;;;;44.78;36.35;;;;;;;13.27;100.00;102158.69;5106729;28;20020;-64
2022/05/07 06:21:56;;;;;;;46.47;34.00;;;;;;;13.44;100.00;102161.59;5103238;28;20057;-65
2022/05/07 06:29:50;;;;;;;43.30;33.78;;;;;;;13.76;100.00;102162.00;5103781;28;20066;-64
2022/05/07 06:32:17;;;;;;;42.63;30.85;;;;;;;13.88;100.00;102158.59;5105031;28;20411;-64
2022/05/07 06:34:42;;;;;;;44.30;35.70;;;;;;;13.94;100.00;102165.75;5104775;28;20084;-64
2022/05/07 06:37:07;;;;;;;40.28;32.15;;;;;;;14.00;100.00;102162.28;5102640;28;20031;-64
2022/05/07 06:39:33;;;;;;;39.78;32.25;;;;;;;14.03;100.00;102167.63;5105645;28;20462;-64
2022/05/07 06:41:58;;;;;;;38.28;29.30;;;;;;;14.11;100.00;102171.22;5102968;28;20532;-64
2022/05/07 06:44:23;;;;;;;40.05;29.15;;;;;;;14.12;100.00;102168.63;5105833;28;20026;-65
2022/05/07 06:46:50;;;;;;;38.92;29.80;;;;;;;14.21;100.00;102169.56;5103605;28;20022;-64
2022/05/07 06:49:17;;;;;;;39.60;29.95;;;;;;;14.18;100.00;102167.75;5104444;28;20020;-64
2022/05/07 06:51:43;;;;;;;38.88;29.90;;;;;;;14.16;100.00;102173.97;5104279;28;20458;-64
2022/05/07 06:54:08;;;;;;;38.72;29.48;;;;;;;14.14;100.00;102176.63;5103833;28;20078;-65
2022/05/07 06:56:34;;;;;;;38.22;29.15;;;;;;;14.22;100.00;102168.72;5105884;28;20020;-64
2022/05/07 06:59:00;;;;;;;36.50;28.63;;;;;;;14.17;100.00;102160.69;5102473;28;20016;-65
2022/05/07 07:01:25;;;;;;;38.67;29.40;;;;;;;14.20;100.00;102171.34;5106159;28;20076;-65
2022/05/07 07:03:51;;;;;;;40.05;28.70;;;;;;;14.23;100.00;102171.38;5100783;28;20085;-65
2022/05/07 07:06:17;;;;;;;39.47;30.85;;;;;;;14.23;100.00;102174.03;5105086;28;20038;-65
2022/05/07 07:08:42;;;;;;;38.97;28.73;;;;;;;14.29;100.00;102171.44;5103985;28;20077;-64
2022/05/07 07:11:07;;;;;;;38.90;28.50;;;;;;;14.36;100.00;102176.81;5103412;28;20467;-65
2022/05/07 07:13:33;;;;;;;39.80;29.88;;;;;;;14.44;100.00;102176.00;5104839;28;20015;-64
2022/05/07 07:15:58;;;;;;;37.65;27.85;;;;;;;14.50;100.00;102179.63;5102442;28;20367;-65
2022/05/07 07:18:23;;;;;;;38.50;29.55;;;;;;;14.62;100.00;102174.41;5105685;28;20051;-69
2022/05/07 07:20:49;;;;;;;38.00;29.08;;;;;;;14.58;100.00;102176.16;5103371;28;20020;-69
2022/05/07 07:23:15;;;;;;;41.78;28.98;;;;;;;14.62;100.00;102175.34;5104903;28;20052;-66
2022/05/07 07:25:42;;;;;;;37.75;27.63;;;;;;;14.77;100.00;102174.56;5103490;28;20012;-67
2022/05/07 07:28:09;;;;;;;37.72;27.42;;;;;;;14.87;100.00;102179.94;5103588;28;20162;-68
2022/05/07 07:30:35;;;;;;;36.05;27.35;;;;;;;14.96;100.00;102172.94;5104488;28;20034;-72
2022/05/07 07:33:01;;;;;;;38.67;28.15;;;;;;;15.06;100.00;102173.00;5100892;28;20032;-68
2022/05/07 07:35:27;;;;;;;38.50;27.98;;;;;;;15.14;100.00;102173.94;5105367;28;20096;-65
2022/05/07 07:37:52;;;;;;;38.08;27.95;;;;;;;15.16;100.00;102175.72;5101935;28;20024;-64
2022/05/07 07:40:18;;;;;;;37.97;26.85;;;;;;;15.17;100.00;102173.94;5104519;28;20028;-64
2022/05/07 07:42:43;;;;;;;34.25;25.10;;;;;;;15.29;100.00;102179.38;5102714;28;20032;-65
2022/05/07 07:47:57;;;;;;;36.10;24.35;;;;;;;15.50;100.00;102172.38;5101592;28;20031;-65
2022/05/07 07:50:24;;;;;;;33.58;23.45;;;;;;;15.65;100.00;102183.13;5101318;28;20483;-64
2022/05/07 07:52:53;;;;;;;33.97;23.25;;;;;;;15.75;100.00;102170.69;5104453;28;20052;-65
2022/05/07 07:55:19;;;;;;;32.45;20.90;;;;;;;15.86;100.00;102173.44;5102157;28;20039;-64
2022/05/07 07:57:44;;;;;;;34.58;22.75;;;;;;;16.00;100.00;102176.13;5103785;28;20036;-65
2022/05/07 08:00:11;;;;;;;34.45;22.92;;;;;;;16.17;100.00;102181.53;5103133;28;20060;-64
2022/05/07 08:02:47;;;;;;;34.10;23.92;;;;;;;16.47;100.00;102179.78;5102755;28;20035;-64
2022/05/07 08:05:13;;;;;;;32.25;22.85;;;;;;;16.55;100.00;102181.56;5120238;28;20020;-64
2022/05/07 08:13:07;;;;;;;34.42;24.33;;;;;;;17.28;100.00;102173.53;5107975;28;20073;-65
2022/05/07 08:15:32;;;;;;;35.30;24.35;;;;;;;17.40;100.00;102168.16;5104151;28;20024;-65
2022/05/07 08:17:57;;;;;;;35.53;24.40;;;;;;;17.54;100.00;102175.25;5101212;28;20467;-65
2022/05/07 08:20:23;;;;;;;34.90;23.85;;;;;;;17.90;100.00;102162.66;5104613;28;20035;-65
2022/05/07 08:22:48;;;;;;;35.92;24.70;;;;;;;18.23;100.00;102168.69;5101693;28;20028;-69
2022/05/07 08:25:13;;;;;;;34.55;23.48;;;;;;;18.36;100.00;102174.84;5106157;28;20036;-72
2022/05/07 08:27:38;;;;;;;35.67;23.75;;;;;;;18.54;100.00;102173.84;5107368;28;20462;-68
2022/05/07 08:30:05;;;;;;;34.17;22.65;;;;;;;18.56;100.00;102172.88;5106179;28;20073;-66
2022/05/07 08:32:30;;;;;;;34.97;22.70;;;;;;;18.54;100.00;102179.19;5107993;28;20398;-69
2022/05/07 08:34:55;;;;;;;35.15;22.10;;;;;;;18.51;100.00;102185.44;5105169;28;20027;-69
2022/05/07 08:37:21;;;;;;;35.28;21.88;;;;;;;18.69;100.00;102181.72;5108228;28;20031;-70
2022/05/07 08:39:46;;;;;;;31.67;20.05;;;;;;;18.96;100.00;102187.75;5105930;28;20020;-73
2022/05/07 08:42:13;;;;;;;32.15;20.02;;;;;;;18.95;99.29;102191.34;5107210;28;20524;-68
2022/05/07 08:44:38;;;;;;;35.40;22.15;;;;;;;18.96;95.62;102195.78;5111205;28;20027;-66
2022/05/07 08:47:04;;;;;;;31.63;20.33;;;;;;;19.13;96.68;102190.28;5111381;28;20471;-65
2022/05/07 08:49:29;;;;;;;32.10;21.73;;;;;;;19.40;93.30;102186.44;5113482;28;20034;-65
2022/05/07 08:51:55;;;;;;;33.00;22.02;;;;;;;19.43;88.89;102177.47;5106521;28;20047;-67
2022/05/07 08:54:21;;;;;;;34.65;22.00;;;;;;;19.69;86.48;102169.97;5106787;28;20473;-68
2022/05/07 08:56:46;;;;;;;33.83;23.35;;;;;;;20.06;86.88;102174.00;5105731;28;20023;-65
2022/05/07 08:59:13;;;;;;;35.70;23.40;;;;;;;19.98;89.48;102176.78;5106435;28;20425;-68
2022/05/07 09:01:38;;;;;;;32.33;22.05;;;;;;;19.85;83.19;102175.19;5106299;28;20454;-77
2022/05/07 09:04:09;;;;;;;33.45;22.35;;;;;;;19.66;84.81;102175.38;5105680;28;20129;-65
2022/05/07 09:06:35;;;;;;;31.35;21.50;;;;;;;20.18;84.38;102179.19;5107124;28;20035;-65
2022/05/07 09:09:04;;;;;;;31.40;20.05;;;;;;;20.71;80.86;102186.47;5104565;28;20470;-66
2022/05/07 09:11:38;;;;;;;32.38;21.48;;;;;;;20.57;83.03;102175.03;5107702;28;20028;-64
2022/05/07 09:14:06;;;;;;;32.67;21.58;;;;;;;20.97;78.82;102175.25;5104942;28;20047;-64
2022/05/07 09:16:43;;;;;;;32.55;21.58;;;;;;;21.50;77.75;102174.25;5107101;28;20024;-65
2022/05/07 09:19:25;;;;;;;33.60;21.15;;;;;;;22.08;76.64;102169.44;5105720;28;20065;-65
2022/05/07 09:21:54;;;;;;;;;;;;;;;22.80;76.37;102169.50;5104778;28;20054;-65
2022/05/07 09:24:19;;;;;;;32.83;21.90;;;;;;;23.00;65.46;102170.78;5107214;28;19915;-65
2022/05/07 09:26:44;;;;;;;31.35;20.20;;;;;;;23.06;65.07;102165.22;5105245;28;20024;-64
2022/05/07 09:29:12;;;;;;;35.10;21.80;;;;;;;23.06;63.98;102168.78;5105528;28;20327;-65
2022/05/07 09:31:43;;;;;;;36.33;24.55;;;;;;;22.53;63.37;102171.97;5106453;28;20027;-65
2022/05/07 09:36:59;;;;;;;33.67;22.00;;;;;;;23.45;51.98;102167.75;5104379;28;20038;-65
2022/05/07 09:39:34;;;;;;;33.35;22.48;;;;;;;24.92;45.45;102176.69;5103419;28;20124;-66
2022/05/07 09:42:01;;;;;;;33.70;22.20;;;;;;;25.58;39.06;102180.56;5106775;28;20066;-66
2022/05/07 09:44:28;;;;;;;33.63;22.42;;;;;;;25.64;40.22;102176.75;5114766;28;20027;-70
2022/05/07 09:46:55;;;;;;;35.47;22.10;;;;;;;25.95;39.19;102169.25;5114800;28;20074;-73
2022/05/07 09:49:22;;;;;;;33.00;22.15;;;;;;;25.72;38.56;102171.06;5114123;28;20482;-69
2022/05/07 09:51:49;;;;;;;30.55;21.13;;;;;;;25.78;38.01;102172.66;5114033;28;20336;-71
2022/05/07 09:59:45;;;;;;;33.10;22.48;;;;;;;26.89;33.39;102170.88;5114387;28;20169;-73
2022/05/07 10:02:38;;;;;;;32.80;22.15;;;;;;;27.12;33.50;102168.00;5113914;28;20031;-73
2022/05/07 10:05:17;;;;;;;30.63;19.65;;;;;;;27.75;32.58;102169.69;5112829;28;20031;-73
2022/05/07 10:08:08;;;;;;;30.05;18.17;;;;;;;28.99;29.95;102171.75;5113246;28;20110;-73
2022/05/07 10:10:38;;;;;;;28.40;18.20;;;;;;;28.40;30.33;102163.84;5113451;28;20070;-70
2022/05/07 10:13:07;;;;;;;29.25;18.02;;;;;;;28.96;28.93;102171.91;5114393;28;20081;-68
2022/05/07 10:15:34;;;;;;;29.25;18.80;;;;;;;29.30;28.42;102159.25;5113829;27;20112;-68
2022/05/07 10:18:07;;;;;;;29.08;16.92;;;;;;;29.59;29.09;102154.94;5114542;28;20359;-66
2022/05/07 10:20:53;;;;;;;26.58;15.32;;;;;;;30.51;28.74;102158.81;5114451;28;20031;-67
2022/05/07 10:23:28;;;;;;;26.17;13.98;;;;;;;30.70;27.71;102159.47;5108430;28;20386;-66
2022/05/07 10:25:58;;;;;;;25.73;13.48;;;;;;;31.21;25.94;102148.19;5104324;28;20019;-68
2022/05/07 10:28:37;;;;;;;24.27;12.90;;;;;;;32.36;26.54;102159.94;5105572;28;20111;-67
2022/05/07 10:31:02;;;;;;;24.60;13.27;;;;;;;32.25;24.30;102153.34;5103109;28;20020;-67
2022/05/07 10:33:38;;;;;;;24.58;11.60;;;;;;;32.58;25.02;102157.53;5105763;28;20027;-66
2022/05/07 10:36:08;;;;;;;24.27;11.27;;;;;;;32.94;23.93;102157.81;5103027;28;20016;-66
2022/05/07 10:38:38;;;;;;;23.80;11.45;;;;;;;33.05;22.70;102154.34;5102787;28;20545;-66
2022/05/07 10:41:04;;;;;;;24.13;11.45;;;;;;;32.74;23.36;102159.25;5102498;28;20493;-65
2022/05/07 10:43:33;;;;;;;22.42;10.77;;;;;;;33.31;22.36;102153.38;5105948;28;20027;-68
2022/05/07 10:46:07;;;;;;;22.27;10.35;;;;;;;34.16;22.24;102157.25;5102253;28;20111;-67
2022/05/07 10:48:52;;;;;;;24.35;11.07;;;;;;;34.91;21.53;102153.38;5102923;28;20032;-69
2022/05/07 10:51:20;;;;;;;23.58;9.63;;;;;;;35.07;21.03;102150.28;5104016;28;20042;-67
2022/05/07 10:53:46;;;;;;;21.98;9.25;;;;;;;34.56;20.67;102144.13;5104367;28;20136;-67
2022/05/07 10:56:13;;;;;;;22.20;9.45;;;;;;;32.46;22.36;102145.56;5103242;28;20024;-66
2022/05/07 10:58:45;;;;;;;22.13;9.27;;;;;;;32.41;22.99;102144.13;5104598;28;20391;-71
2022/05/07 11:01:10;;;;;;;;;;;;;;;34.01;22.85;102140.09;5103646;28;20016;-71
2022/05/07 11:03:36;;;;;;;22.07;9.67;;;;;;;34.51;21.44;102140.84;5105854;28;19923;-67
2022/05/07 11:06:02;;;;;;;22.47;9.37;;;;;;;35.12;19.78;102130.66;5102333;28;20271;-67
2022/05/07 11:08:30;;;;;;;24.35;9.60;;;;;;;34.82;20.09;102135.75;5105361;28;21171;-66
2022/05/07 11:11:07;;;;;;;21.70;9.20;;;;;;;34.68;20.15;102135.91;5103923;28;20027;-65
2022/05/07 11:13:38;;;;;;;24.05;10.35;;;;;;;33.66;20.81;102133.47;5106576;28;20107;-69
2022/05/07 11:16:05;;;;;;;22.30;10.65;;;;;;;34.47;21.12;102136.59;5105030;28;20031;-64
2022/05/07 11:18:33;;;;;;;24.27;11.73;;;;;;;34.86;20.79;102130.88;5108371;28;20126;-65
2022/05/07 11:21:04;;;;;;;23.88;11.27;;;;;;;34.02;22.11;102129.00;5102751;28;20024;-72
2022/05/07 11:23:35;;;;;;;;;;;;;;;34.35;22.02;102141.19;5105913;28;20472;-68
2022/05/07 11:26:12;;;;;;;24.08;10.63;;;;;;;32.41;23.87;102131.31;5102287;28;19912;-66
2022/05/07 11:28:40;;;;;;;23.80;10.43;;;;;;;30.74;25.93;102136.50;5102161;28;20027;-66
2022/05/07 11:31:05;;;;;;;24.25;10.98;;;;;;;29.34;27.34;102142.69;5105610;28;20031;-67
2022/05/07 11:33:31;;;;;;;24.55;10.93;;;;;;;28.47;28.55;102138.13;5102317;28;20020;-66
2022/05/07 11:36:01;;;;;;;24.17;11.30;;;;;;;27.77;29.03;102131.59;5104710;28;20489;-69